Time;durP1;ratioP1;P1;durP2;ratioP2;P2;SDS_P1;SDS_P2;PMS_P1;PMS_P2;Temp;Humidity;BMP_temperature;BMP_pressure;BME280_temperature;BME280_humidity;BME280_pressure;Samples;Min_cycle;Max_cycle;Signal;HPM_P1;HPM_P2
2022/10/17 00:12:19;;;;;;;46.42;24.60;;;27.00;99.90;;;;;;5587487;23;20065;-60
2022/10/17 00:14:46;;;;;;;55.30;36.00;;;27.00;99.90;;;;;;5010003;28;20041;-61
2022/10/17 00:17:14;;;;;;;58.33;38.88;;;27.00;99.90;;;;;;5010312;28;20021;-62
2022/10/17 00:19:40;;;;;;;42.20;27.42;;;27.00;99.90;;;;;;5010049;28;20474;-61
2022/10/17 00:22:07;;;;;;;51.30;32.53;;;27.00;99.90;;;;;;5010375;28;20029;-61
2022/10/17 00:24:33;;;;;;;44.10;27.20;;;27.00;99.90;;;;;;5010501;28;20024;-62
2022/10/17 00:27:00;;;;;;;263.35;191.68;;;27.00;99.90;;;;;;5010463;28;20466;-61
2022/10/17 00:29:26;;;;;;;85.82;62.50;;;27.10;99.90;;;;;;5010207;28;20022;-61
2022/10/17 00:31:56;;;;;;;54.47;34.92;;;27.20;99.90;;;;;;5010219;28;20019;-61
2022/10/17 00:34:24;;;;;;;52.40;32.50;;;27.30;99.90;;;;;;5009857;28;20026;-61
2022/10/17 00:36:50;;;;;;;51.72;28.60;;;27.30;99.90;;;;;;5009034;28;20071;-62
2022/10/17 00:39:17;;;;;;;44.53;31.30;;;27.40;99.90;;;;;;5010262;28;20025;-62
2022/10/17 00:41:43;;;;;;;57.42;37.55;;;27.40;99.90;;;;;;5009715;28;20023;-62
2022/10/17 00:44:15;;;;;;;63.72;34.13;;;27.40;99.90;;;;;;5009960;28;20022;-61
2022/10/17 00:46:42;;;;;;;59.20;41.10;;;27.50;99.90;;;;;;5010129;28;20125;-63
2022/10/17 00:49:11;;;;;;;61.80;39.92;;;27.50;99.90;;;;;;5010084;28;20033;-60
2022/10/17 00:51:43;;;;;;;72.22;39.83;;;27.60;99.90;;;;;;5009804;28;20030;-60
2022/10/17 00:54:12;;;;;;;53.47;35.95;;;27.60;99.90;;;;;;5010053;28;20467;-60
2022/10/17 00:56:39;;;;;;;60.53;39.67;;;27.70;99.90;;;;;;5009775;28;20029;-61
2022/10/17 00:59:09;;;;;;;66.30;45.42;;;27.70;99.90;;;;;;5009692;28;20022;-63
2022/10/17 01:01:36;;;;;;;72.53;45.20;;;27.80;99.90;;;;;;5009262;28;20033;-60
2022/10/17 01:04:03;;;;;;;63.72;43.00;;;27.80;99.90;;;;;;4998806;28;20081;-62
2022/10/17 01:06:29;;;;;;;70.65;45.95;;;27.80;99.90;;;;;;4996130;28;20034;-61
2022/10/17 01:08:56;;;;;;;64.93;43.33;;;27.90;99.90;;;;;;4996672;28;20099;-61
2022/10/17 01:11:32;;;;;;;48.67;36.35;;;28.00;99.90;;;;;;4997856;28;20026;-62
2022/10/17 01:14:06;;;;;;;53.83;41.33;;;28.10;99.90;;;;;;5016180;28;20024;-62
2022/10/17 01:16:43;;;;;;;59.45;38.97;;;28.10;99.90;;;;;;5015628;28;20425;-63
2022/10/17 01:19:12;;;;;;;46.85;36.30;;;28.20;99.90;;;;;;5016091;28;20022;-62
2022/10/17 01:21:50;;;;;;;60.70;39.53;;;28.30;99.90;;;;;;5016001;28;20053;-61
2022/10/17 01:24:21;;;;;;;48.63;35.10;;;28.30;99.90;;;;;;5015927;28;20022;-62
2022/10/17 01:26:53;;;;;;;50.75;35.50;;;28.30;99.90;;;;;;5015992;28;20029;-62
2022/10/17 01:29:30;;;;;;;346.35;274.10;;;28.50;99.90;;;;;;5015714;28;20029;-61
2022/10/17 01:32:18;;;;;;;115.72;52.25;;;28.50;99.90;;;;;;5015757;28;20104;-62
2022/10/17 01:34:48;;;;;;;75.88;38.22;;;28.60;99.90;;;;;;4998470;28;20044;-62
2022/10/17 01:37:19;;;;;;;54.83;35.88;;;28.70;99.90;;;;;;5015935;28;20025;-62
2022/10/17 01:39:48;;;;;;;60.00;39.03;;;28.70;99.90;;;;;;5015109;28;20045;-62
2022/10/17 01:42:17;;;;;;;57.67;39.88;;;28.80;99.90;;;;;;5015615;28;20030;-61
2022/10/17 01:45:02;;;;;;;62.65;42.83;;;28.90;99.90;;;;;;5015467;28;20108;-63
2022/10/17 01:47:32;;;;;;;124.55;91.72;;;28.90;99.90;;;;;;5015467;28;20080;-60
2022/10/17 01:50:05;;;;;;;55.53;38.75;;;28.90;99.90;;;;;;5015466;28;20474;-62
2022/10/17 01:52:39;;;;;;;63.45;41.50;;;28.90;99.90;;;;;;5014605;28;20070;-57
2022/10/17 01:55:13;;;;;;;76.38;51.33;;;28.90;99.90;;;;;;5015414;28;20022;-60
2022/10/17 01:57:45;;;;;;;64.90;47.60;;;29.00;99.90;;;;;;5014779;28;20018;-62
2022/10/17 02:00:17;;;;;;;82.45;62.47;;;29.00;99.90;;;;;;5015271;28;20028;-61
2022/10/17 02:02:46;;;;;;;57.35;39.65;;;29.10;99.90;;;;;;5015306;28;20057;-61
2022/10/17 02:05:12;;;;;;;53.88;35.38;;;29.00;99.90;;;;;;5015082;28;20030;-65
2022/10/17 02:07:41;;;;;;;59.22;35.83;;;29.00;99.90;;;;;;5015305;28;20080;-62
2022/10/17 02:10:14;;;;;;;128.77;66.65;;;29.00;99.90;;;;;;5015056;28;20109;-61
2022/10/17 02:12:56;;;;;;;524.97;326.83;;;29.00;99.90;;;;;;5014640;28;20129;-61
2022/10/17 02:15:33;;;;;;;61.55;41.22;;;29.10;99.90;;;;;;5013992;28;20022;-61
2022/10/17 02:18:09;;;;;;;53.47;35.42;;;29.20;99.90;;;;;;5015016;28;20030;-61
2022/10/17 02:20:44;;;;;;;52.13;30.42;;;29.20;99.90;;;;;;5014856;28;20018;-58
2022/10/17 02:23:32;;;;;;;49.60;31.77;;;29.10;99.90;;;;;;5014160;28;20038;-58
2022/10/17 02:26:10;;;;;;;85.40;35.47;;;29.20;99.90;;;;;;5012729;28;20037;-60
2022/10/17 02:28:43;;;;;;;51.47;34.40;;;29.20;99.90;;;;;;5014746;28;20022;-63
2022/10/17 02:31:15;;;;;;;52.30;33.30;;;29.20;99.90;;;;;;5014739;28;20413;-64
2022/10/17 02:33:54;;;;;;;49.37;29.90;;;29.10;99.90;;;;;;5014842;28;20022;-62
2022/10/17 02:36:25;;;;;;;41.03;29.40;;;29.00;99.90;;;;;;5014540;28;20105;-63
2022/10/17 02:38:54;;;;;;;48.83;31.23;;;29.20;99.90;;;;;;5014442;28;20504;-63
2022/10/17 02:41:22;;;;;;;53.05;35.67;;;29.20;99.90;;;;;;5014596;28;20030;-61
2022/10/17 02:43:50;;;;;;;57.17;35.40;;;29.30;99.90;;;;;;5014466;28;20029;-65
2022/10/17 02:46:20;;;;;;;68.90;46.92;;;29.40;99.90;;;;;;5013757;28;20030;-64
2022/10/17 02:48:52;;;;;;;57.63;36.33;;;29.40;99.90;;;;;;5014333;28;20057;-64
2022/10/17 02:51:21;;;;;;;54.92;37.50;;;29.40;99.90;;;;;;5014260;28;20022;-66
2022/10/17 02:53:53;;;;;;;53.25;36.05;;;29.40;99.90;;;;;;5014304;28;20025;-62
2022/10/17 02:56:21;;;;;;;57.55;37.90;;;29.50;99.90;;;;;;5014293;28;20018;-63
2022/10/17 02:58:58;;;;;;;67.32;46.45;;;29.40;99.90;;;;;;5014059;28;20475;-62
2022/10/17 03:01:25;;;;;;;78.40;54.75;;;29.50;99.90;;;;;;5014145;28;20080;-62
2022/10/17 03:04:06;;;;;;;52.50;36.97;;;29.70;99.90;;;;;;5014101;28;20025;-63
2022/10/17 03:06:32;;;;;;;48.10;33.00;;;29.70;99.90;;;;;;5014029;28;20109;-61
2022/10/17 03:08:59;;;;;;;49.13;32.33;;;29.70;99.90;;;;;;5014122;28;20030;-62
2022/10/17 03:11:25;;;;;;;44.85;31.23;;;29.80;99.90;;;;;;5013554;28;20030;-62
2022/10/17 03:13:52;;;;;;;43.80;33.60;;;29.80;99.90;;;;;;5013968;28;20094;-62
2022/10/17 03:16:18;;;;;;;50.47;29.85;;;29.90;99.90;;;;;;5014207;28;20014;-62
2022/10/17 03:18:45;;;;;;;44.05;32.10;;;29.90;99.90;;;;;;5013763;28;20061;-63
2022/10/17 03:21:11;;;;;;;44.03;30.90;;;29.90;99.90;;;;;;5013875;28;20026;-61
2022/10/17 03:23:38;;;;;;;37.05;30.63;;;29.90;99.90;;;;;;5013834;28;20029;-63
2022/10/17 03:26:06;;;;;;;41.63;31.75;;;30.00;99.90;;;;;;5013388;28;20171;-62
2022/10/17 03:28:32;;;;;;;46.25;33.38;;;30.20;99.90;;;;;;5013769;28;20113;-62
2022/10/17 03:30:59;;;;;;;146.57;111.05;;;30.10;99.90;;;;;;5013690;28;20022;-62
2022/10/17 03:33:25;;;;;;;49.78;36.60;;;30.00;99.90;;;;;;5013537;28;20033;-62
2022/10/17 03:35:52;;;;;;;51.47;35.22;;;30.00;99.90;;;;;;5013914;28;20636;-61
2022/10/17 03:38:18;;;;;;;43.65;31.27;;;30.00;99.90;;;;;;5013756;28;20022;-63
2022/10/17 03:40:55;;;;;;;48.10;32.78;;;30.00;99.90;;;;;;5013559;28;20068;-59
2022/10/17 03:43:21;;;;;;;48.30;29.38;;;30.00;99.90;;;;;;5013529;28;20071;-60
2022/10/17 03:45:48;;;;;;;40.28;28.48;;;30.20;99.90;;;;;;5013633;28;20128;-62
2022/10/17 03:48:14;;;;;;;42.13;28.55;;;30.20;99.90;;;;;;5013396;28;20018;-62
2022/10/17 03:50:41;;;;;;;39.83;29.80;;;30.20;99.90;;;;;;5013514;28;20074;-60
2022/10/17 03:53:07;;;;;;;41.22;29.30;;;30.20;99.90;;;;;;5013525;28;20029;-60
2022/10/17 03:55:34;;;;;;;46.95;31.38;;;30.20;99.90;;;;;;5013356;28;20397;-60
2022/10/17 03:58:00;;;;;;;46.97;32.10;;;30.30;99.90;;;;;;5013415;28;20482;-63
2022/10/17 04:00:27;;;;;;;38.55;29.67;;;30.50;99.90;;;;;;5013341;28;20049;-58
2022/10/17 04:02:53;;;;;;;43.13;30.17;;;30.60;99.90;;;;;;5013260;28;20022;-61
2022/10/17 04:05:20;;;;;;;44.00;29.83;;;30.70;99.90;;;;;;5013299;28;20034;-60
2022/10/17 04:07:46;;;;;;;39.53;30.05;;;30.80;99.90;;;;;;5013342;28;20022;-61
2022/10/17 04:10:13;;;;;;;40.70;28.02;;;30.80;99.90;;;;;;5007514;28;20025;-60
2022/10/17 04:12:39;;;;;;;37.78;29.40;;;30.80;99.90;;;;;;5003005;28;20042;-61
2022/10/17 04:15:06;;;;;;;45.53;31.73;;;30.70;99.90;;;;;;5006197;28;20014;-61
2022/10/17 04:17:33;;;;;;;41.10;30.38;;;30.90;99.90;;;;;;5003941;28;20045;-58
2022/10/17 04:20:00;;;;;;;39.85;29.55;;;31.00;99.90;;;;;;5001110;28;20042;-62
2022/10/17 04:22:26;;;;;;;43.45;29.08;;;31.10;99.90;;;;;;5002739;28;20026;-61
2022/10/17 04:24:53;;;;;;;49.78;30.77;;;31.10;99.90;;;;;;5002948;28;20049;-62
2022/10/17 04:27:19;;;;;;;41.75;30.27;;;31.10;99.90;;;;;;5001053;28;20022;-61
2022/10/17 04:29:46;;;;;;;44.22;32.03;;;31.20;99.90;;;;;;5002579;28;20417;-61
2022/10/17 04:32:13;;;;;;;40.10;32.08;;;31.20;99.90;;;;;;5002712;28;20073;-60
2022/10/17 04:34:39;;;;;;;49.60;32.50;;;31.10;99.90;;;;;;5000917;28;20482;-61
2022/10/17 04:37:06;;;;;;;38.25;30.50;;;31.30;99.90;;;;;;5002592;28;20458;-64
2022/10/17 04:39:32;;;;;;;38.88;29.13;;;31.40;99.90;;;;;;5005743;28;20015;-62
2022/10/17 04:41:58;;;;;;;47.85;30.23;;;31.40;99.90;;;;;;5004645;28;20046;-62
2022/10/17 04:44:25;;;;;;;51.80;30.38;;;31.50;99.90;;;;;;5010049;28;20030;-62
2022/10/17 04:46:51;;;;;;;39.25;29.70;;;31.50;99.90;;;;;;5011991;28;20530;-61
2022/10/17 04:49:18;;;;;;;49.72;31.65;;;31.70;99.90;;;;;;5004420;28;20022;-61
2022/10/17 04:51:45;;;;;;;42.83;29.70;;;31.70;99.90;;;;;;5001205;28;20426;-61
2022/10/17 04:54:11;;;;;;;46.33;32.80;;;31.70;99.90;;;;;;4996992;28;20391;-63
2022/10/17 04:56:38;;;;;;;43.97;32.50;;;31.80;99.90;;;;;;4996754;28;20475;-61
2022/10/17 04:59:04;;;;;;;36.60;27.73;;;31.90;99.90;;;;;;4996839;28;20033;-62
2022/10/17 05:01:30;;;;;;;40.42;29.58;;;32.10;99.90;;;;;;4996913;28;20045;-62
2022/10/17 05:03:57;;;;;;;47.25;29.77;;;32.10;99.90;;;;;;4996650;28;20023;-62
2022/10/17 05:06:27;;;;;;;42.83;30.23;;;32.00;99.90;;;;;;4996727;28;20298;-61
2022/10/17 05:08:53;;;;;;;46.33;31.90;;;31.90;99.90;;;;;;4996597;28;20391;-61
2022/10/17 05:11:24;;;;;;;41.83;30.67;;;31.90;99.90;;;;;;4996070;28;20089;-62
2022/10/17 05:13:55;;;;;;;39.53;30.73;;;32.10;99.90;;;;;;4996557;28;20023;-61
2022/10/17 05:16:23;;;;;;;41.22;30.17;;;32.20;99.90;;;;;;4996488;28;20067;-61
2022/10/17 05:18:51;;;;;;;44.72;30.20;;;32.20;99.90;;;;;;4999527;28;20053;-62
2022/10/17 05:21:18;;;;;;;30.15;22.25;;;32.40;99.90;;;;;;5015995;28;20029;-62
2022/10/17 05:23:45;;;;;;;29.63;22.98;;;32.30;99.90;;;;;;5015849;28;20038;-59
2022/10/17 05:26:12;;;;;;;34.45;25.60;;;32.50;99.90;;;;;;5007144;28;20030;-59
2022/10/17 05:28:39;;;;;;;37.65;28.02;;;32.30;99.90;;;;;;5003801;28;20448;-61
2022/10/17 05:31:07;;;;;;;37.00;25.00;;;32.30;99.90;;;;;;5003567;28;20046;-59
2022/10/17 05:33:35;;;;;;;24.88;21.05;;;32.40;99.90;;;;;;5005238;28;20053;-58
2022/10/17 05:36:01;;;;;;;26.95;21.58;;;32.50;99.90;;;;;;5005768;28;20037;-59
2022/10/17 05:38:28;;;;;;;28.40;21.65;;;32.50;99.90;;;;;;4999424;28;20030;-59
2022/10/17 05:40:58;;;;;;;27.73;22.40;;;32.40;99.90;;;;;;4997147;28;20054;-59
2022/10/17 05:43:25;;;;;;;26.38;19.73;;;32.50;99.90;;;;;;4997764;28;20018;-59
2022/10/17 05:45:53;;;;;;;22.27;18.02;;;32.50;99.90;;;;;;5001831;28;20050;-60
2022/10/17 05:48:19;;;;;;;27.02;22.13;;;32.70;99.90;;;;;;5003403;28;20017;-59
2022/10/17 05:50:46;;;;;;;23.45;20.05;;;32.70;99.90;;;;;;5009842;28;20105;-60
2022/10/17 05:53:12;;;;;;;27.85;20.60;;;32.90;99.90;;;;;;5008188;28;20093;-61
2022/10/17 05:55:39;;;;;;;23.92;20.20;;;32.70;99.90;;;;;;5005560;28;20023;-60
2022/10/17 05:58:06;;;;;;;23.65;17.70;;;32.60;99.90;;;;;;5003911;28;20390;-59
2022/10/17 06:00:32;;;;;;;26.25;18.30;;;32.70;99.90;;;;;;5005154;28;20022;-60
2022/10/17 06:02:59;;;;;;;22.52;19.98;;;32.70;99.90;;;;;;5006580;28;20100;-62
2022/10/17 06:05:25;;;;;;;27.00;20.75;;;32.70;99.90;;;;;;5011645;28;20382;-59
2022/10/17 06:07:52;;;;;;;27.00;21.92;;;32.90;99.90;;;;;;5005822;28;20061;-61
2022/10/17 06:10:19;;;;;;;31.13;24.67;;;33.00;99.90;;;;;;5002661;28;20490;-63
2022/10/17 06:12:46;;;;;;;28.33;21.73;;;33.10;99.90;;;;;;5003753;28;20109;-61
2022/10/17 06:15:12;;;;;;;28.42;23.58;;;33.20;99.90;;;;;;5004835;28;20494;-60
2022/10/17 06:17:39;;;;;;;28.42;24.33;;;33.10;99.90;;;;;;5006264;28;20037;-61
2022/10/17 06:20:06;;;;;;;27.63;24.20;;;33.20;99.90;;;;;;5006325;28;20041;-61
2022/10/17 06:22:33;;;;;;;25.73;22.95;;;33.30;99.90;;;;;;5000418;28;20018;-59
2022/10/17 06:24:59;;;;;;;29.08;24.05;;;33.30;99.90;;;;;;4998978;28;20028;-60
2022/10/17 06:27:26;;;;;;;20.52;18.17;;;33.40;99.90;;;;;;5000193;28;20065;-62
2022/10/17 06:29:52;;;;;;;30.33;17.90;;;33.40;99.70;;;;;;5010325;28;20104;-59
2022/10/17 06:32:18;;;;;;;25.98;20.50;;;33.40;99.80;;;;;;5009736;28;20022;-62
2022/10/17 06:34:45;;;;;;;23.48;20.15;;;33.30;99.90;;;;;;5010126;28;20010;-60
2022/10/17 06:37:12;;;;;;;46.50;33.85;;;33.60;99.30;;;;;;5010130;28;20018;-60
2022/10/17 06:39:38;;;;;;;25.65;20.55;;;33.60;98.80;;;;;;5009681;28;20097;-62
2022/10/17 06:42:05;;;;;;;27.85;20.10;;;33.60;97.40;;;;;;5009826;28;20018;-58
2022/10/17 06:44:31;;;;;;;30.63;20.85;;;33.50;99.60;;;;;;5010145;28;20041;-63
2022/10/17 06:46:59;;;;;;;22.67;20.27;;;33.40;99.30;;;;;;5009727;28;20022;-60
2022/10/17 06:49:26;;;;;;;26.50;19.70;;;33.40;98.90;;;;;;5009603;28;20025;-63
2022/10/17 06:51:53;;;;;;;26.00;20.92;;;33.40;97.30;;;;;;5000733;28;20030;-59
2022/10/17 06:54:20;;;;;;;22.60;19.48;;;33.40;99.50;;;;;;5002623;28;20084;-58
2022/10/17 06:56:46;;;;;;;27.45;23.20;;;33.40;98.70;;;;;;5001853;28;20087;-57
2022/10/17 06:59:14;;;;;;;31.30;24.60;;;33.30;99.90;;;;;;5003495;28;20018;-56
2022/10/17 07:01:41;;;;;;;31.75;25.38;;;33.30;98.50;;;;;;5007646;28;20026;-58
2022/10/17 07:04:08;;;;;;;34.08;26.27;;;33.30;98.50;;;;;;5002484;28;20026;-60
2022/10/17 07:06:34;;;;;;;27.30;22.90;;;33.20;98.20;;;;;;5004373;28;20021;-56
2022/10/17 07:09:01;;;;;;;34.38;27.63;;;33.10;98.60;;;;;;5002896;28;20030;-58
2022/10/17 07:11:28;;;;;;;45.35;31.65;;;33.10;99.90;;;;;;4997656;28;20026;-57
2022/10/17 07:13:54;;;;;;;38.00;29.05;;;33.00;99.60;;;;;;5003083;28;20108;-64
2022/10/17 07:16:21;;;;;;;80.90;51.95;;;32.90;99.30;;;;;;5003785;28;20398;-57
2022/10/17 07:18:50;;;;;;;38.05;28.20;;;32.90;99.70;;;;;;5001712;28;20044;-65
2022/10/17 07:21:17;;;;;;;35.03;26.73;;;32.90;99.90;;;;;;5006055;28;20018;-57
2022/10/17 07:23:43;;;;;;;33.33;26.25;;;32.90;99.90;;;;;;5005653;28;20038;-59
2022/10/17 07:26:14;;;;;;;34.92;25.02;;;32.70;99.30;;;;;;5002085;28;20046;-58
2022/10/17 07:28:45;;;;;;;29.77;24.40;;;32.80;98.90;;;;;;5002231;28;20026;-62
2022/10/17 07:31:16;;;;;;;33.67;26.83;;;32.70;99.10;;;;;;5002219;28;20046;-63
2022/10/17 07:33:43;;;;;;;31.02;27.23;;;32.70;99.90;;;;;;5001848;28;20286;-62
2022/10/17 07:36:10;;;;;;;54.58;29.30;;;32.70;99.90;;;;;;5003816;28;20024;-66
2022/10/17 07:38:37;;;;;;;64.20;43.47;;;32.60;99.90;;;;;;5003622;28;20022;-63
2022/10/17 07:41:06;;;;;;;37.97;28.30;;;32.70;99.90;;;;;;5003297;28;20038;-63
2022/10/17 07:43:34;;;;;;;33.28;25.60;;;32.60;99.90;;;;;;5002912;28;20051;-62
2022/10/17 07:46:02;;;;;;;36.35;27.85;;;32.50;99.90;;;;;;5013292;28;20032;-64
2022/10/17 07:48:29;;;;;;;33.53;26.13;;;32.50;99.90;;;;;;5014083;28;20026;-63
2022/10/17 07:50:56;;;;;;;29.42;23.75;;;32.40;99.90;;;;;;5009307;28;20711;-63
2022/10/17 07:53:22;;;;;;;28.05;23.13;;;32.40;99.90;;;;;;5008234;28;20018;-64
2022/10/17 07:55:50;;;;;;;35.88;24.95;;;32.30;99.50;;;;;;5004025;28;20669;-63
2022/10/17 07:58:16;;;;;;;30.20;23.38;;;32.40;99.90;;;;;;5004706;28;20018;-63
2022/10/17 08:00:47;;;;;;;32.90;26.20;;;32.40;99.90;;;;;;5002286;28;20022;-63
2022/10/17 08:03:13;;;;;;;37.38;26.05;;;32.30;99.90;;;;;;5002478;28;20483;-64
2022/10/17 08:05:40;;;;;;;35.17;26.35;;;32.30;99.90;;;;;;5007638;28;20160;-63
2022/10/17 08:08:06;;;;;;;29.30;24.83;;;32.30;99.90;;;;;;5014168;28;20026;-64
2022/10/17 08:10:33;;;;;;;31.58;24.52;;;32.30;99.90;;;;;;5014180;28;20198;-64
2022/10/17 08:13:00;;;;;;;31.38;25.85;;;32.30;99.90;;;;;;5014690;28;20046;-63
2022/10/17 08:15:27;;;;;;;34.78;26.35;;;32.30;99.90;;;;;;5017727;28;20379;-62
2022/10/17 08:17:54;;;;;;;33.95;27.10;;;32.30;99.90;;;;;;5016989;28;20025;-63
2022/10/17 08:20:21;;;;;;;34.42;26.88;;;32.20;99.90;;;;;;5010086;28;20027;-63
2022/10/17 08:22:51;;;;;;;32.38;27.05;;;32.10;99.90;;;;;;5007174;28;20072;-63
2022/10/17 08:25:17;;;;;;;38.17;27.10;;;32.20;99.90;;;;;;5006852;28;20105;-63
2022/10/17 08:27:44;;;;;;;35.92;27.27;;;32.20;99.90;;;;;;5008527;28;20437;-63
2022/10/17 08:30:11;;;;;;;35.35;28.85;;;32.20;99.90;;;;;;5017419;28;20033;-64
2022/10/17 08:32:37;;;;;;;45.42;31.27;;;32.20;99.90;;;;;;5017447;28;20018;-62
2022/10/17 08:35:04;;;;;;;49.95;34.33;;;32.20;99.90;;;;;;5017048;28;20025;-62
2022/10/17 08:37:31;;;;;;;60.33;42.75;;;32.10;99.90;;;;;;5017524;28;20014;-60
2022/10/17 08:39:57;;;;;;;37.80;29.17;;;32.10;99.90;;;;;;5017612;28;20026;-62
2022/10/17 08:42:27;;;;;;;34.60;27.25;;;32.00;99.80;;;;;;5017443;28;20072;-61
2022/10/17 08:44:58;;;;;;;152.65;113.72;;;32.00;99.60;;;;;;5017325;28;20033;-62
2022/10/17 08:47:33;;;;;;;61.72;45.45;;;31.90;99.90;;;;;;5017303;28;20030;-61
2022/10/17 08:50:03;;;;;;;64.90;43.20;;;31.50;99.90;;;;;;5017469;28;20026;-62
2022/10/17 08:52:34;;;;;;;88.95;64.20;;;31.10;99.90;;;;;;5016569;28;20085;-62
2022/10/17 08:55:00;;;;;;;63.00;45.85;;;31.00;99.90;;;;;;5017166;28;20022;-62
2022/10/17 08:57:27;;;;;;;74.60;54.58;;;30.90;99.90;;;;;;5016647;28;20022;-63
2022/10/17 08:59:55;;;;;;;61.25;47.58;;;30.80;99.90;;;;;;5016548;28;20412;-62
2022/10/17 09:02:25;;;;;;;58.80;43.95;;;30.70;99.90;;;;;;5017227;28;20053;-63
2022/10/17 09:05:00;;;;;;;56.53;43.65;;;30.40;99.90;;;;;;5017200;28;20053;-61
2022/10/17 09:07:30;;;;;;;66.18;50.22;;;30.10;99.90;;;;;;5016670;28;20026;-63
2022/10/17 09:10:23;;;;;;;82.55;58.58;;;30.30;99.90;;;;;;5016600;28;20457;-61
2022/10/17 09:12:52;;;;;;;84.88;60.13;;;30.40;99.90;;;;;;4993747;28;20129;-61
2022/10/17 09:15:30;;;;;;;100.90;66.43;;;30.40;99.90;;;;;;5016292;28;20025;-61
2022/10/17 09:17:59;;;;;;;86.63;58.00;;;30.40;99.90;;;;;;5016212;28;20021;-61
2022/10/17 09:20:45;;;;;;;107.32;70.72;;;30.50;99.90;;;;;;5006707;28;20058;-66
2022/10/17 09:23:17;;;;;;;104.32;73.55;;;30.40;99.90;;;;;;5003697;28;20082;-60
2022/10/17 09:25:47;;;;;;;101.85;69.65;;;30.30;99.90;;;;;;5004150;28;20019;-59
2022/10/17 09:28:20;;;;;;;95.97;67.90;;;30.30;99.90;;;;;;5004707;28;20021;-60
2022/10/17 09:30:56;;;;;;;92.72;66.30;;;30.20;99.90;;;;;;5004470;28;20474;-60
2022/10/17 09:33:29;;;;;;;81.25;54.63;;;30.10;99.90;;;;;;5006605;28;20038;-63
2022/10/17 09:35:57;;;;;;;79.47;57.15;;;29.90;99.90;;;;;;4996766;28;20022;-59
2022/10/17 09:38:33;;;;;;;86.85;61.40;;;29.60;99.90;;;;;;5011325;28;20022;-57
2022/10/17 09:41:01;;;;;;;129.63;97.43;;;29.70;99.90;;;;;;5016110;28;20017;-60
2022/10/17 09:43:28;;;;;;;135.13;105.72;;;29.70;99.90;;;;;;5016067;28;20021;-58
2022/10/17 09:45:59;;;;;;;57.47;44.85;;;29.70;99.90;;;;;;5015705;28;20025;-60
2022/10/17 09:48:39;;;;;;;48.15;40.53;;;29.40;99.90;;;;;;4996243;28;20045;-59
2022/10/17 09:51:06;;;;;;;47.60;38.75;;;29.10;99.90;;;;;;4996039;28;20541;-61
2022/10/17 09:53:38;;;;;;;67.93;50.95;;;29.20;99.90;;;;;;4996411;28;20101;-61
2022/10/17 09:56:16;;;;;;;76.65;59.83;;;29.30;99.90;;;;;;4997072;28;20026;-62
2022/10/17 09:58:56;;;;;;;101.25;60.10;;;29.20;99.90;;;;;;5016012;28;20018;-61
2022/10/17 10:01:27;;;;;;;95.95;63.33;;;29.20;99.90;;;;;;5015776;28;20070;-60
2022/10/17 10:04:14;;;;;;;79.68;50.78;;;29.30;99.90;;;;;;5016232;28;20079;-62
2022/10/17 10:07:00;;;;;;;58.53;42.35;;;29.40;99.90;;;;;;5016322;28;20053;-61
2022/10/17 10:09:30;;;;;;;128.10;101.03;;;29.30;99.90;;;;;;5015754;28;20029;-60
2022/10/17 10:12:01;;;;;;;63.30;46.03;;;29.10;99.90;;;;;;5015302;28;20050;-61
2022/10/17 10:14:32;;;;;;;162.15;113.53;;;29.00;99.90;;;;;;5015845;28;20026;-59
2022/10/17 10:17:00;;;;;;;134.10;100.85;;;29.00;99.90;;;;;;5015812;28;20020;-61
2022/10/17 10:19:31;;;;;;;93.55;64.22;;;29.00;99.90;;;;;;5015807;28;20054;-59
2022/10/17 10:22:03;;;;;;;100.75;73.60;;;29.10;99.90;;;;;;5015738;28;20033;-61
2022/10/17 10:24:31;;;;;;;89.05;66.43;;;29.30;99.90;;;;;;5015667;28;20425;-62
2022/10/17 10:27:00;;;;;;;78.93;56.38;;;29.40;99.90;;;;;;5015532;28;20032;-62
2022/10/17 10:29:31;;;;;;;98.85;73.25;;;29.40;99.90;;;;;;5015699;28;20037;-60
2022/10/17 10:32:09;;;;;;;79.70;62.75;;;29.30;99.90;;;;;;5015776;28;20271;-60
2022/10/17 10:34:41;;;;;;;91.03;66.47;;;29.20;99.90;;;;;;5015523;28;20069;-60
2022/10/17 10:37:13;;;;;;;89.15;61.33;;;29.20;99.90;;;;;;5014674;28;20018;-58
2022/10/17 10:40:01;;;;;;;100.97;70.72;;;29.30;99.90;;;;;;5014964;28;20030;-63
2022/10/17 10:42:36;;;;;;;88.40;58.65;;;29.40;99.90;;;;;;5015562;28;20426;-60
2022/10/17 10:45:17;;;;;;;65.05;44.25;;;29.40;99.90;;;;;;5015258;28;20057;-60
2022/10/17 10:48:23;;;;;;;63.15;45.03;;;29.40;99.90;;;;;;5015502;28;20018;-59
2022/10/17 10:50:53;;;;;;;105.38;62.58;;;29.30;99.90;;;;;;5005773;28;20042;-61
2022/10/17 10:53:42;;;;;;;103.18;65.82;;;29.30;99.90;;;;;;5015233;28;20022;-60
2022/10/17 10:56:11;;;;;;;106.10;65.43;;;29.30;99.90;;;;;;5009046;28;20387;-61
2022/10/17 10:58:39;;;;;;;84.57;56.78;;;29.30;99.90;;;;;;5015248;28;20049;-62
2022/10/17 11:01:15;;;;;;;87.40;55.22;;;29.30;99.90;;;;;;5014839;28;20538;-58
2022/10/17 11:03:55;;;;;;;82.70;53.25;;;29.30;99.90;;;;;;5014533;28;20426;-61
2022/10/17 11:06:28;;;;;;;85.78;51.88;;;29.30;99.90;;;;;;5014843;28;20033;-61
2022/10/17 11:08:59;;;;;;;99.85;64.68;;;29.30;99.90;;;;;;5014802;28;20022;-60
2022/10/17 11:11:37;;;;;;;131.40;74.93;;;29.40;99.90;;;;;;5014380;28;20036;-62
2022/10/17 11:14:12;;;;;;;106.53;64.78;;;29.30;99.90;;;;;;5014671;28;20030;-59
2022/10/17 11:16:44;;;;;;;121.50;62.03;;;29.30;99.90;;;;;;5014656;28;20098;-62
2022/10/17 11:19:12;;;;;;;95.63;66.22;;;29.30;99.90;;;;;;5015101;28;20053;-60
2022/10/17 11:21:39;;;;;;;86.35;54.92;;;29.20;99.90;;;;;;5014816;28;20041;-61
2022/10/17 11:24:11;;;;;;;93.55;61.03;;;29.20;99.90;;;;;;5014597;28;20026;-59
2022/10/17 11:27:00;;;;;;;80.63;54.15;;;29.10;99.90;;;;;;5014838;28;20062;-61
2022/10/17 11:29:30;;;;;;;83.07;56.33;;;29.10;99.90;;;;;;5014304;28;20106;-59
2022/10/17 11:32:05;;;;;;;110.75;73.85;;;29.00;99.90;;;;;;5014442;28;20470;-59
2022/10/17 11:34:39;;;;;;;96.88;62.80;;;29.10;99.90;;;;;;5014610;28;20450;-64
2022/10/17 11:37:16;;;;;;;95.25;59.42;;;29.10;99.90;;;;;;5014586;28;20026;-58
2022/10/17 11:39:48;;;;;;;90.97;59.05;;;29.00;99.90;;;;;;5014272;28;20026;-59
2022/10/17 11:42:20;;;;;;;78.90;53.53;;;28.90;99.90;;;;;;5014423;28;20022;-60
2022/10/17 11:44:48;;;;;;;75.40;50.13;;;28.90;99.90;;;;;;5014294;28;20041;-61
2022/10/17 11:47:25;;;;;;;99.63;58.45;;;28.90;99.90;;;;;;5013917;28;20026;-61
2022/10/17 11:50:00;;;;;;;96.75;59.88;;;28.90;99.90;;;;;;5014527;28;20037;-60
2022/10/17 11:52:26;;;;;;;111.70;70.18;;;28.80;99.90;;;;;;5013694;28;20018;-60
2022/10/17 11:55:01;;;;;;;125.10;76.32;;;28.80;99.90;;;;;;5014106;28;20466;-59
2022/10/17 11:57:33;;;;;;;131.10;84.18;;;28.80;99.90;;;;;;5013765;28;20028;-59
2022/10/17 12:00:08;;;;;;;130.55;85.28;;;28.70;99.90;;;;;;5008229;28;20026;-58
2022/10/17 12:02:40;;;;;;;122.45;75.68;;;28.80;99.90;;;;;;5005182;28;20110;-64
2022/10/17 12:05:29;;;;;;;74.45;51.13;;;28.90;99.90;;;;;;5002921;28;20526;-60
2022/10/17 12:08:03;;;;;;;74.72;48.15;;;28.90;99.90;;;;;;4996341;28;20038;-60
2022/10/17 12:10:38;;;;;;;131.55;79.68;;;28.90;99.90;;;;;;5009833;28;20125;-58
2022/10/17 12:13:10;;;;;;;126.60;74.35;;;28.80;99.90;;;;;;5010786;28;20402;-63
2022/10/17 12:15:37;;;;;;;93.95;57.20;;;28.80;99.90;;;;;;5014121;28;20022;-61
2022/10/17 12:18:04;;;;;;;61.75;40.30;;;28.70;99.90;;;;;;5013773;28;20050;-59
2022/10/17 12:20:34;;;;;;;61.40;38.33;;;28.60;99.90;;;;;;5011799;28;20032;-63
2022/10/17 12:23:05;;;;;;;55.00;37.97;;;28.60;99.90;;;;;;5002376;28;20035;-63
2022/10/17 12:25:38;;;;;;;61.33;42.67;;;28.70;99.90;;;;;;5002864;28;20093;-61
2022/10/17 12:28:07;;;;;;;114.15;65.75;;;28.70;99.90;;;;;;5002783;28;20101;-66
2022/10/17 12:30:34;;;;;;;116.20;61.78;;;28.60;99.90;;;;;;5001490;28;20022;-60
2022/10/17 12:33:05;;;;;;;108.22;62.00;;;28.70;99.90;;;;;;5002279;28;20030;-60
2022/10/17 12:35:33;;;;;;;102.38;61.85;;;28.70;99.90;;;;;;5002116;28;20382;-59
2022/10/17 12:38:04;;;;;;;119.80;69.15;;;28.60;99.90;;;;;;5002044;28;20014;-59
2022/10/17 12:40:34;;;;;;;117.55;65.60;;;28.60;99.90;;;;;;5004507;28;20474;-58
2022/10/17 12:43:23;;;;;;;94.32;55.92;;;28.60;99.90;;;;;;5003870;28;20030;-60
2022/10/17 12:45:50;;;;;;;86.32;52.20;;;28.50;99.90;;;;;;4999520;28;20038;-65
2022/10/17 12:48:22;;;;;;;76.68;49.65;;;28.60;99.90;;;;;;5009361;28;20034;-65
2022/10/17 12:50:54;;;;;;;69.20;45.13;;;28.50;99.90;;;;;;5006353;28;20098;-64